This is the latest recevied weather packets stored in our database for station/object KP4FJC. If no packets are shown the sender has not sent any weather packets the latest 10 day(s).
| Time | Temp. | Humidity | Pressure | Rain* | Wind** | Luminosity | Snow |
|---|---|---|---|---|---|---|---|
| 1777664845 | 29.44° C | 78% | 1014 hPa | 0 mm | - | 143 W/m² | - |
| 1777664541 | 28.89° C | 78% | 1014 hPa | 0 mm | - | 609 W/m² | - |
| 1777664238 | 28.89° C | 80% | 1014 hPa | 0 mm | - | 502 W/m² | - |
| 1777663936 | 28.89° C | 82% | 1013.9 hPa | 1.27 mm | - | 568 W/m² | - |
| 1777663633 | 28.33° C | 84% | 1013.8 hPa | 3.05 mm | - | 586 W/m² | - |
| 1777663331 | 27.78° C | 85% | 1014.1 hPa | 4.32 mm | - | 247 W/m² | - |
| 1777663028 | 28.89° C | 84% | 1014.4 hPa | 3.05 mm | - | 139 W/m² | - |
| 1777662725 | 29.44° C | 81% | 1014.5 hPa | 0 mm | - | 242 W/m² | - |
| 1777662421 | 29.44° C | 78% | 1014.4 hPa | 0 mm | - | 166 W/m² | - |
| 1777662116 | 30° C | 75% | 1014.5 hPa | 0 mm | - | 125 W/m² | - |
| 1777661813 | 30.56° C | 74% | 1014.3 hPa | 0 mm | - | 215 W/m² | - |
| 1777661509 | 30.56° C | 73% | 1014 hPa | 0 mm | - | 872 W/m² | - |
| 1777661205 | 30° C | 74% | 1014.3 hPa | 0 mm | - | 913 W/m² | - |
| 1777660900 | 30.56° C | 73% | 1014.4 hPa | 0 mm | - | 324 W/m² | - |
| 1777660597 | 30.56° C | 72% | 1014.4 hPa | 0 mm | - | 921 W/m² | - |
| 1777660293 | 30.56° C | 73% | 1014.4 hPa | 0 mm | - | 922 W/m² | - |
| 1777659990 | 31.11° C | 69% | 1014.6 hPa | 0 mm | - | 446 W/m² | - |
| 1777659686 | 31.11° C | 70% | 1014.5 hPa | 0 mm | - | 815 W/m² | - |
| 1777659384 | 31.11° C | 70% | 1014.5 hPa | 0 mm | - | 913 W/m² | - |
| 1777659080 | 31.11° C | 71% | 1014.5 hPa | 0 mm | - | 794 W/m² | - |
| 1777658779 | 31.11° C | 72% | 1014.9 hPa | 0 mm | - | 898 W/m² | - |
| 1777658474 | 31.11° C | 71% | 1014.7 hPa | 0 mm | - | 799 W/m² | - |
| 1777658171 | 30.56° C | 72% | 1015 hPa | 0 mm | - | 841 W/m² | - |
| 1777657868 | 30.56° C | 72% | 1015 hPa | 0 mm | - | 1054 W/m² | - |
| 1777657565 | 30.56° C | 73% | 1014.9 hPa | 0 mm | - | 726 W/m² | - |
* Rain latest hour (hover to see other rain measurements)
** Current wind speed in m/s (hover to see current wind gust speed)